createdAt,value
2023-03-27T00:02:24.690Z,18.70
2023-03-27T00:04:54.832Z,22.37
2023-03-27T00:07:22.279Z,19.40
2023-03-27T00:09:49.140Z,19.30
2023-03-27T00:12:16.159Z,18.23
2023-03-27T00:14:43.068Z,18.70
2023-03-27T00:17:11.305Z,16.73
2023-03-27T00:19:39.005Z,15.73
2023-03-27T00:22:05.987Z,17.67
2023-03-27T00:24:34.728Z,16.57
2023-03-27T00:27:01.678Z,15.93
2023-03-27T00:29:28.921Z,14.97
2023-03-27T00:31:56.413Z,17.03
2023-03-27T00:34:23.351Z,17.07
2023-03-27T00:36:52.196Z,14.70
2023-03-27T00:39:19.453Z,13.48
2023-03-27T00:41:46.475Z,11.77
2023-03-27T00:44:36.077Z,12.17
2023-03-27T00:47:04.727Z,12.77
2023-03-27T00:49:37.659Z,14.00
2023-03-27T00:52:07.313Z,15.33
2023-03-27T00:54:40.416Z,11.57
2023-03-27T00:57:11.966Z,10.73
2023-03-27T00:59:42.722Z,11.43
2023-03-27T01:02:10.877Z,10.33
2023-03-27T01:04:40.073Z,9.70
2023-03-27T01:07:08.850Z,8.88
2023-03-27T01:09:36.758Z,8.95
2023-03-27T01:12:30.856Z,7.80
2023-03-27T01:14:58.114Z,9.33
2023-03-27T01:17:25.167Z,8.77
2023-03-27T01:20:26.308Z,9.50
2023-03-27T01:23:03.516Z,9.27
2023-03-27T01:25:42.830Z,10.17
2023-03-27T01:28:14.421Z,6.93
2023-03-27T01:30:50.651Z,7.20
2023-03-27T01:33:39.132Z,6.63
2023-03-27T01:36:27.633Z,7.38
2023-03-27T01:39:06.686Z,6.82
2023-03-27T01:41:46.643Z,6.65
2023-03-27T01:44:45.208Z,6.03
2023-03-27T01:50:17.348Z,5.63
2023-03-27T01:53:01.516Z,5.00
2023-03-27T01:55:34.639Z,6.20
2023-03-27T01:58:08.107Z,6.07
2023-03-27T02:00:52.453Z,6.43
2023-03-27T02:03:30.119Z,6.40
2023-03-27T02:06:12.677Z,6.47
2023-03-27T02:08:47.415Z,7.77
2023-03-27T02:11:17.964Z,8.07
2023-03-27T02:13:51.749Z,9.27
2023-03-27T02:16:25.239Z,9.73
2023-03-27T02:18:58.412Z,6.63
2023-03-27T02:21:25.688Z,7.90
2023-03-27T02:23:53.327Z,6.40
2023-03-27T02:26:20.683Z,10.27
2023-03-27T02:29:13.873Z,7.00
2023-03-27T02:32:13.221Z,6.83
2023-03-27T02:34:59.033Z,7.75
2023-03-27T02:38:13.878Z,5.87
2023-03-27T02:41:00.862Z,6.70
2023-03-27T02:43:48.832Z,6.93
2023-03-27T02:46:30.842Z,6.70
2023-03-27T02:49:02.443Z,6.53
2023-03-27T02:51:34.864Z,6.57
2023-03-27T02:54:08.077Z,6.70
2023-03-27T02:56:40.852Z,6.90
2023-03-27T02:59:16.037Z,6.93
2023-03-27T03:01:45.577Z,5.93
2023-03-27T03:04:42.006Z,6.60
2023-03-27T03:07:14.534Z,6.43
2023-03-27T03:09:44.762Z,7.55
2023-03-27T03:12:12.132Z,7.63
2023-03-27T03:14:44.688Z,6.77
2023-03-27T03:17:12.728Z,6.13
2023-03-27T03:19:39.696Z,6.33
2023-03-27T03:22:08.016Z,6.30
2023-03-27T03:24:36.410Z,6.43
2023-03-27T03:27:04.711Z,7.50
2023-03-27T03:29:40.119Z,8.67
2023-03-27T03:32:15.776Z,7.83
2023-03-27T03:34:46.978Z,7.57
2023-03-27T03:37:15.597Z,6.07
2023-03-27T03:39:42.478Z,6.23
2023-03-27T03:42:09.824Z,5.97
2023-03-27T03:44:51.572Z,6.73
2023-03-27T03:47:20.778Z,6.40
2023-03-27T03:49:48.336Z,6.67
2023-03-27T03:52:15.393Z,6.70
2023-03-27T03:54:44.317Z,6.00
2023-03-27T03:57:12.604Z,6.70
2023-03-27T03:59:40.195Z,6.40
2023-03-27T04:02:29.822Z,6.27
2023-03-27T04:05:08.578Z,6.10
2023-03-27T04:07:40.507Z,8.03
2023-03-27T04:10:26.830Z,10.63
2023-03-27T04:12:54.440Z,10.30
2023-03-27T04:15:28.306Z,14.17
2023-03-27T04:18:04.848Z,9.20
2023-03-27T04:20:34.930Z,9.80
2023-03-27T04:55:40.800Z,7.50
2023-03-27T04:58:09.339Z,7.88
2023-03-27T05:00:38.858Z,9.33
2023-03-27T05:03:06.466Z,9.17
2023-03-27T05:05:42.162Z,9.33
2023-03-27T05:08:09.577Z,7.70
2023-03-27T05:10:36.471Z,9.07
2023-03-27T05:13:03.518Z,7.50
2023-03-27T05:15:32.695Z,7.03
2023-03-27T05:18:02.793Z,8.73
2023-03-27T05:20:31.534Z,8.40
2023-03-27T05:23:04.570Z,7.73
2023-03-27T05:25:33.244Z,8.13
2023-03-27T05:28:03.456Z,9.20
2023-03-27T05:30:33.264Z,7.47
2023-03-27T05:33:16.618Z,8.07
2023-03-27T05:35:49.852Z,9.13
2023-03-27T05:38:17.585Z,8.20
2023-03-27T05:41:12.056Z,9.77
2023-03-27T05:43:45.504Z,8.60
2023-03-27T05:46:21.362Z,9.00
2023-03-27T05:49:01.693Z,8.77
2023-03-27T05:51:29.541Z,9.67
2023-03-27T05:53:56.719Z,9.67
2023-03-27T05:56:33.531Z,10.67
2023-03-27T06:01:35.285Z,9.10
2023-03-27T06:04:05.111Z,7.60
2023-03-27T06:06:50.647Z,5.40
2023-03-27T06:09:17.625Z,4.97
2023-03-27T06:11:59.802Z,4.50
2023-03-27T06:14:26.988Z,4.20
2023-03-27T06:17:13.178Z,5.60
2023-03-27T06:19:49.591Z,7.40
2023-03-27T06:22:17.076Z,10.67
2023-03-27T06:24:47.285Z,12.90
2023-03-27T06:27:18.614Z,9.50
2023-03-27T06:29:45.874Z,9.17
2023-03-27T06:32:13.008Z,9.63
2023-03-27T06:34:46.172Z,11.13
2023-03-27T06:37:51.613Z,11.07
2023-03-27T06:40:23.643Z,7.15
2023-03-27T06:42:58.941Z,4.10
2023-03-27T06:45:49.304Z,6.03
2023-03-27T06:48:35.136Z,5.45
2023-03-27T06:51:05.641Z,2.78
2023-03-27T06:53:36.688Z,2.72
2023-03-27T06:56:06.071Z,2.08
2023-03-27T06:58:52.932Z,2.25
2023-03-27T07:01:25.402Z,2.30
2023-03-27T07:04:19.680Z,2.15
2023-03-27T07:07:02.912Z,1.98
2023-03-27T07:09:33.862Z,1.08
2023-03-27T07:12:04.886Z,1.42
2023-03-27T07:14:32.092Z,0.93
2023-03-27T07:16:59.535Z,1.05
2023-03-27T07:19:31.622Z,1.80
2023-03-27T07:22:09.353Z,0.70
2023-03-27T07:24:37.320Z,0.90
2023-03-27T07:27:04.766Z,1.10
2023-03-27T07:29:33.722Z,1.00
2023-03-27T07:32:06.031Z,2.80
2023-03-27T07:34:46.641Z,2.55
2023-03-27T07:37:32.728Z,1.10
2023-03-27T07:40:29.512Z,1.05
2023-03-27T07:43:22.477Z,1.42
2023-03-27T07:45:50.958Z,1.67
2023-03-27T07:48:19.108Z,1.45
2023-03-27T07:53:32.464Z,1.10
2023-03-27T07:56:09.229Z,1.27
2023-03-27T07:58:37.534Z,1.45
2023-03-27T08:01:06.360Z,1.20
2023-03-27T08:03:35.037Z,1.15
2023-03-27T08:06:02.946Z,0.75
2023-03-27T08:08:31.812Z,1.02
2023-03-27T08:11:03.369Z,1.35
2023-03-27T08:13:35.364Z,1.10
2023-03-27T08:16:21.939Z,1.10
2023-03-27T08:18:49.982Z,1.88
2023-03-27T08:21:17.361Z,1.67
2023-03-27T08:23:50.412Z,1.80
2023-03-27T08:26:55.385Z,1.50
2023-03-27T08:29:23.177Z,1.70
2023-03-27T08:31:50.648Z,1.98
2023-03-27T08:34:17.869Z,1.35
2023-03-27T08:36:47.382Z,1.52
2023-03-27T08:39:15.943Z,1.75
2023-03-27T08:41:55.934Z,2.78
2023-03-27T08:44:33.316Z,1.65
2023-03-27T08:47:19.061Z,1.42
2023-03-27T08:49:58.636Z,1.15
2023-03-27T08:52:33.351Z,1.70
2023-03-27T08:55:24.844Z,1.10
2023-03-27T08:58:27.657Z,0.80
2023-03-27T09:01:20.060Z,0.50
2023-03-27T09:03:52.288Z,1.37
2023-03-27T09:06:28.143Z,1.50
2023-03-27T09:09:29.985Z,1.80
2023-03-27T09:14:44.591Z,0.80
2023-03-27T09:17:38.522Z,0.88
2023-03-27T09:20:42.779Z,0.60
2023-03-27T09:23:38.614Z,0.70
2023-03-27T09:26:41.682Z,1.00
2023-03-27T09:29:32.187Z,1.02
2023-03-27T09:32:15.194Z,1.02
2023-03-27T09:34:43.698Z,0.68
2023-03-27T09:37:17.538Z,0.60
2023-03-27T09:39:54.879Z,0.68
2023-03-27T09:42:37.988Z,0.80
2023-03-27T09:45:10.147Z,0.80
2023-03-27T09:48:04.627Z,1.00
2023-03-27T09:50:47.625Z,0.90
2023-03-27T09:53:39.416Z,0.70
2023-03-27T09:56:14.975Z,1.15
2023-03-27T09:58:49.455Z,0.88
2023-03-27T10:01:28.521Z,1.17
2023-03-27T10:04:01.400Z,1.25
2023-03-27T10:06:45.081Z,0.93
2023-03-27T10:09:32.580Z,0.80
2023-03-27T10:12:16.217Z,1.58
2023-03-27T10:14:47.760Z,1.30
2023-03-27T10:17:35.146Z,1.48
2023-03-27T10:20:18.452Z,0.90
2023-03-27T10:22:54.456Z,1.48
2023-03-27T10:25:31.551Z,1.13
2023-03-27T10:28:16.085Z,1.00
2023-03-27T10:31:31.211Z,1.00
2023-03-27T10:34:08.627Z,0.80
2023-03-27T10:36:55.786Z,0.70
2023-03-27T10:39:29.440Z,0.65
2023-03-27T10:42:10.252Z,1.00
2023-03-27T10:44:44.281Z,1.25
2023-03-27T10:50:04.328Z,2.30
2023-03-27T10:52:45.312Z,1.30
2023-03-27T10:55:37.035Z,1.25
2023-03-27T10:58:35.734Z,0.65
2023-03-27T11:01:28.349Z,1.23
2023-03-27T11:04:03.815Z,1.23
2023-03-27T11:06:42.111Z,0.60
2023-03-27T11:09:24.456Z,0.43
2023-03-27T11:12:05.110Z,0.73
2023-03-27T11:15:23.856Z,0.35
2023-03-27T11:18:09.915Z,1.02
2023-03-27T11:21:07.711Z,0.50
2023-03-27T11:23:57.040Z,0.40
2023-03-27T11:26:36.956Z,1.00
2023-03-27T11:29:20.771Z,0.80
2023-03-27T11:31:54.212Z,1.15
2023-03-27T11:34:38.517Z,0.60
2023-03-27T11:38:08.388Z,0.43
2023-03-27T11:40:44.358Z,0.82
2023-03-27T11:43:13.874Z,1.20
2023-03-27T11:46:06.340Z,1.10
2023-03-27T11:49:08.768Z,1.92
2023-03-27T11:52:05.278Z,2.95
2023-03-27T11:54:48.622Z,2.97
2023-03-27T11:57:26.616Z,2.88
2023-03-27T12:00:18.645Z,2.83
2023-03-27T12:02:45.753Z,3.03
2023-03-27T12:05:40.623Z,2.40
2023-03-27T12:08:29.136Z,2.83
2023-03-27T12:11:02.332Z,2.57
2023-03-27T12:14:23.882Z,3.17
2023-03-27T12:17:11.200Z,6.23
2023-03-27T12:20:00.826Z,4.03
2023-03-27T12:22:42.214Z,4.97
2023-03-27T12:25:44.434Z,3.25
2023-03-27T12:28:40.129Z,0.60
2023-03-27T12:31:58.944Z,0.83
2023-03-27T12:35:03.752Z,0.10
2023-03-27T12:37:44.193Z,4.07
2023-03-27T12:40:42.123Z,1.20
2023-03-27T12:43:19.956Z,0.40
2023-03-27T12:46:12.214Z,1.20
2023-03-27T12:48:56.018Z,15.27
2023-03-27T12:51:42.488Z,2.80
2023-03-27T12:54:15.499Z,1.25
2023-03-27T12:56:43.495Z,0.10
2023-03-27T12:59:30.230Z,0.10
2023-03-27T13:02:09.167Z,2.10
2023-03-27T13:07:32.146Z,0.53
2023-03-27T13:10:04.332Z,0.87
2023-03-27T13:13:06.045Z,0.40
2023-03-27T13:16:02.224Z,2.00
2023-03-27T13:18:39.258Z,3.55
2023-03-27T13:21:19.161Z,4.03
2023-03-27T13:23:59.502Z,1.43
2023-03-27T13:26:39.304Z,2.50
2023-03-27T13:29:18.871Z,6.83
2023-03-27T13:31:52.109Z,5.60
2023-03-27T13:34:42.892Z,4.10
2023-03-27T13:37:17.190Z,8.57
2023-03-27T13:39:59.903Z,4.40
2023-03-27T13:42:40.700Z,2.83
2023-03-27T13:45:55.025Z,5.97
2023-03-27T13:48:59.692Z,3.17
2023-03-27T13:51:32.913Z,0.40
2023-03-27T13:54:26.793Z,0.80
2023-03-27T13:57:28.610Z,0.60
2023-03-27T14:00:18.968Z,0.40
2023-03-27T14:03:11.060Z,0.40
2023-03-27T14:06:09.990Z,0.73
2023-03-27T14:09:00.452Z,0.30
2023-03-27T14:15:32.491Z,0.50
2023-03-27T14:18:36.166Z,0.20
2023-03-27T14:21:12.202Z,0.50
2023-03-27T14:23:59.121Z,0.30
2023-03-27T14:26:43.068Z,0.20
2023-03-27T14:29:17.977Z,0.33
2023-03-27T14:31:51.111Z,1.03
2023-03-27T14:34:51.041Z,0.80
2023-03-27T14:37:56.133Z,1.50
2023-03-27T14:40:55.616Z,1.20
2023-03-27T14:43:36.841Z,0.60
2023-03-27T14:46:06.518Z,0.35
2023-03-27T14:48:40.121Z,0.77
2023-03-27T14:51:18.851Z,1.00
2023-03-27T14:53:49.758Z,2.80
2023-03-27T14:56:37.499Z,1.70
2023-03-27T14:59:14.303Z,1.97
2023-03-27T15:01:52.681Z,1.70
2023-03-27T15:04:20.109Z,1.80
2023-03-27T15:06:50.346Z,0.80
2023-03-27T15:09:43.678Z,1.13
2023-03-27T15:12:47.809Z,1.33
2023-03-27T15:15:25.633Z,1.20
2023-03-27T15:17:56.027Z,1.50
2023-03-27T15:20:28.257Z,1.20
2023-03-27T15:23:03.906Z,1.00
2023-03-27T15:25:46.356Z,1.40
2023-03-27T15:28:24.666Z,1.50
2023-03-27T15:30:56.414Z,0.93
2023-03-27T15:33:53.178Z,1.30
2023-03-27T15:36:28.726Z,1.03
2023-03-27T15:39:00.821Z,2.60
2023-03-27T15:41:27.923Z,1.87
2023-03-27T15:44:17.742Z,1.10
2023-03-27T15:46:51.974Z,0.50
2023-03-27T15:49:34.907Z,0.10
2023-03-27T15:52:31.834Z,0.30
2023-03-27T15:55:04.498Z,0.50
2023-03-27T15:57:33.082Z,0.40
2023-03-27T16:00:09.251Z,0.98
2023-03-27T16:02:43.661Z,4.43
2023-03-27T16:05:17.718Z,3.70
2023-03-27T16:07:47.551Z,3.23
2023-03-27T16:10:33.970Z,3.63
2023-03-27T16:13:03.180Z,3.43
2023-03-27T16:15:32.215Z,3.45
2023-03-27T16:18:04.624Z,5.17
2023-03-27T16:20:35.010Z,4.90
2023-03-27T16:23:04.499Z,4.10
2023-03-27T16:25:32.944Z,2.30
2023-03-27T16:27:59.928Z,3.57
2023-03-27T16:30:32.966Z,2.03
2023-03-27T16:33:00.659Z,1.70
2023-03-27T16:35:37.313Z,2.10
2023-03-27T16:38:04.638Z,2.00
2023-03-27T16:40:31.968Z,2.17
2023-03-27T16:42:59.061Z,2.30
2023-03-27T16:45:27.285Z,3.10
2023-03-27T16:47:54.861Z,1.83
2023-03-27T16:50:27.088Z,2.53
2023-03-27T16:52:54.124Z,6.57
2023-03-27T16:55:21.799Z,6.63
2023-03-27T16:57:49.029Z,6.20
2023-03-27T17:00:16.817Z,5.03
2023-03-27T17:02:44.766Z,6.00
2023-03-27T17:05:14.740Z,6.60
2023-03-27T17:07:47.073Z,5.40
2023-03-27T17:10:15.211Z,5.33
2023-03-27T17:12:42.245Z,5.70
2023-03-27T17:15:09.790Z,5.63
2023-03-27T17:17:37.192Z,3.83
2023-03-27T17:20:07.879Z,3.60
2023-03-27T17:22:35.275Z,3.80
2023-03-27T17:25:03.804Z,3.07
2023-03-27T17:27:30.858Z,3.58
2023-03-27T17:29:59.365Z,3.20
2023-03-27T17:32:27.192Z,3.83
2023-03-27T17:34:54.505Z,3.57
2023-03-27T17:37:22.490Z,4.20
2023-03-27T17:39:53.615Z,4.40
2023-03-27T17:42:20.667Z,4.40
2023-03-27T17:44:47.771Z,4.67
2023-03-27T17:47:14.902Z,4.37
2023-03-27T17:49:43.459Z,5.40
2023-03-27T17:52:12.199Z,4.70
2023-03-27T17:54:39.934Z,5.22
2023-03-27T17:57:07.046Z,4.07
2023-03-27T17:59:33.964Z,4.57
2023-03-27T18:02:03.327Z,4.93
2023-03-27T18:04:31.447Z,4.65
2023-03-27T18:06:58.527Z,3.77
2023-03-27T18:09:26.044Z,6.40
2023-03-27T18:11:53.042Z,4.40
2023-03-27T18:14:20.041Z,1.40
2023-03-27T18:16:48.098Z,1.20
2023-03-27T18:19:15.512Z,1.43
2023-03-27T18:21:42.712Z,0.50
2023-03-27T18:24:09.923Z,0.40
2023-03-27T18:26:37.215Z,0.70
2023-03-27T18:29:05.221Z,1.17
2023-03-27T18:31:32.827Z,3.47
2023-03-27T18:33:59.865Z,3.80
2023-03-27T18:36:28.332Z,2.60
2023-03-27T18:38:55.408Z,2.13
2023-03-27T18:41:22.505Z,1.23
2023-03-27T18:43:49.460Z,2.40
2023-03-27T18:46:19.249Z,1.30
2023-03-27T18:48:49.892Z,2.50
2023-03-27T18:51:20.536Z,2.47
2023-03-27T18:53:49.614Z,2.37
2023-03-27T18:56:18.061Z,3.50
2023-03-27T18:58:45.133Z,4.07
2023-03-27T19:01:12.835Z,3.77
2023-03-27T19:03:40.864Z,3.57
2023-03-27T19:06:09.918Z,4.40
2023-03-27T19:08:38.178Z,3.70
2023-03-27T19:11:06.517Z,3.77
2023-03-27T19:13:51.837Z,5.13
2023-03-27T19:16:30.734Z,4.60
2023-03-27T19:19:16.160Z,4.20
2023-03-27T19:22:01.527Z,5.13
2023-03-27T19:24:37.059Z,5.60
2023-03-27T19:27:04.264Z,6.23
2023-03-27T19:29:31.627Z,5.80
2023-03-27T19:31:58.870Z,5.47
2023-03-27T19:34:40.125Z,3.77
2023-03-27T19:37:10.007Z,7.00
2023-03-27T19:39:37.300Z,7.67
2023-03-27T19:42:04.477Z,6.60
2023-03-27T19:44:34.637Z,5.70
2023-03-27T19:47:03.839Z,6.70
2023-03-27T19:49:31.252Z,6.18
2023-03-27T19:52:17.478Z,8.47
2023-03-27T19:54:44.382Z,9.47
2023-03-27T19:57:12.899Z,6.30
2023-03-27T19:59:39.962Z,4.03
2023-03-27T20:02:06.996Z,4.70
2023-03-27T20:04:33.952Z,3.77
2023-03-27T20:07:02.308Z,4.23
2023-03-27T20:09:29.447Z,3.80
2023-03-27T20:11:57.141Z,3.57
2023-03-27T20:14:24.195Z,4.37
2023-03-27T20:16:51.555Z,4.70
2023-03-27T20:19:20.300Z,5.67
2023-03-27T20:21:49.401Z,9.00
2023-03-27T20:24:19.257Z,8.20
2023-03-27T20:26:57.314Z,5.83
2023-03-27T20:29:26.014Z,6.83
2023-03-27T20:31:53.156Z,5.43
2023-03-27T20:34:23.069Z,4.40
2023-03-27T22:19:23.357Z,2.70
2023-03-27T22:21:50.429Z,3.23
2023-03-27T22:24:17.327Z,3.70
2023-03-27T22:26:44.295Z,3.58
2023-03-27T22:29:11.301Z,4.07
2023-03-27T22:31:38.337Z,4.27
2023-03-27T22:34:06.186Z,5.63
2023-03-27T22:36:33.622Z,5.63
